sensor_id;sensor_type;location;lat;lon;timestamp;temperature;humidity
21722;DHT22;11023;48.274;7.794;2023-06-14T00:00:12;16.40;99.90
21722;DHT22;11023;48.274;7.794;2023-06-14T00:02:41;16.40;99.90
21722;DHT22;11023;48.274;7.794;2023-06-14T00:05:07;16.40;99.90
21722;DHT22;11023;48.274;7.794;2023-06-14T00:07:35;16.40;99.90
21722;DHT22;11023;48.274;7.794;2023-06-14T00:10:01;16.30;99.90
21722;DHT22;11023;48.274;7.794;2023-06-14T00:12:27;16.20;99.90
21722;DHT22;11023;48.274;7.794;2023-06-14T00:14:52;16.10;99.90
21722;DHT22;11023;48.274;7.794;2023-06-14T00:17:18;16.00;99.90
21722;DHT22;11023;48.274;7.794;2023-06-14T00:19:44;16.00;99.90
21722;DHT22;11023;48.274;7.794;2023-06-14T00:22:10;15.90;99.90
21722;DHT22;11023;48.274;7.794;2023-06-14T00:24:36;15.90;99.90
21722;DHT22;11023;48.274;7.794;2023-06-14T00:27:01;15.80;99.90
21722;DHT22;11023;48.274;7.794;2023-06-14T00:29:27;15.80;99.90
21722;DHT22;11023;48.274;7.794;2023-06-14T00:31:53;15.70;99.90
21722;DHT22;11023;48.274;7.794;2023-06-14T00:34:18;15.60;99.90
21722;DHT22;11023;48.274;7.794;2023-06-14T00:36:44;15.60;99.90
21722;DHT22;11023;48.274;7.794;2023-06-14T00:39:09;15.50;99.90
21722;DHT22;11023;48.274;7.794;2023-06-14T00:41:35;15.50;99.90
21722;DHT22;11023;48.274;7.794;2023-06-14T00:44:01;15.50;99.90
21722;DHT22;11023;48.274;7.794;2023-06-14T00:46:27;15.40;99.90
21722;DHT22;11023;48.274;7.794;2023-06-14T00:48:53;15.30;99.90
21722;DHT22;11023;48.274;7.794;2023-06-14T00:51:19;15.30;99.90
21722;DHT22;11023;48.274;7.794;2023-06-14T00:53:45;15.20;99.90
21722;DHT22;11023;48.274;7.794;2023-06-14T00:56:14;15.10;99.90
21722;DHT22;11023;48.274;7.794;2023-06-14T00:58:41;15.00;99.90
21722;DHT22;11023;48.274;7.794;2023-06-14T01:01:07;14.90;99.90
21722;DHT22;11023;48.274;7.794;2023-06-14T01:03:33;14.90;99.90
21722;DHT22;11023;48.274;7.794;2023-06-14T01:06:06;14.80;99.90
21722;DHT22;11023;48.274;7.794;2023-06-14T01:08:52;14.90;99.90
21722;DHT22;11023;48.274;7.794;2023-06-14T01:11:28;14.90;99.90
21722;DHT22;11023;48.274;7.794;2023-06-14T01:13:58;14.90;99.90
21722;DHT22;11023;48.274;7.794;2023-06-14T01:16:25;14.90;99.90
21722;DHT22;11023;48.274;7.794;2023-06-14T01:18:53;14.80;99.90
21722;DHT22;11023;48.274;7.794;2023-06-14T01:21:23;14.70;99.90
21722;DHT22;11023;48.274;7.794;2023-06-14T01:23:49;14.70;99.90
21722;DHT22;11023;48.274;7.794;2023-06-14T01:26:19;14.70;99.90
21722;DHT22;11023;48.274;7.794;2023-06-14T01:28:46;14.70;99.90
21722;DHT22;11023;48.274;7.794;2023-06-14T01:31:17;14.70;99.90
21722;DHT22;11023;48.274;7.794;2023-06-14T01:33:43;14.80;99.90
21722;DHT22;11023;48.274;7.794;2023-06-14T01:36:09;14.80;99.90
21722;DHT22;11023;48.274;7.794;2023-06-14T01:38:36;14.80;99.90
21722;DHT22;11023;48.274;7.794;2023-06-14T01:41:03;14.80;99.90
21722;DHT22;11023;48.274;7.794;2023-06-14T01:43:31;14.80;99.90
21722;DHT22;11023;48.274;7.794;2023-06-14T01:45:58;14.80;99.90
21722;DHT22;11023;48.274;7.794;2023-06-14T01:48:26;14.80;99.90
21722;DHT22;11023;48.274;7.794;2023-06-14T01:50:52;14.90;99.90
21722;DHT22;11023;48.274;7.794;2023-06-14T01:53:18;14.80;99.90
21722;DHT22;11023;48.274;7.794;2023-06-14T01:55:43;14.80;99.90
21722;DHT22;11023;48.274;7.794;2023-06-14T01:58:10;14.60;99.90
21722;DHT22;11023;48.274;7.794;2023-06-14T02:00:36;14.40;99.90
21722;DHT22;11023;48.274;7.794;2023-06-14T02:03:02;14.10;99.90
21722;DHT22;11023;48.274;7.794;2023-06-14T02:05:30;13.90;99.90
21722;DHT22;11023;48.274;7.794;2023-06-14T02:07:56;13.80;99.90
21722;DHT22;11023;48.274;7.794;2023-06-14T02:10:22;13.70;99.90
21722;DHT22;11023;48.274;7.794;2023-06-14T02:12:47;13.70;99.90
21722;DHT22;11023;48.274;7.794;2023-06-14T02:15:13;13.80;99.90
21722;DHT22;11023;48.274;7.794;2023-06-14T02:17:43;13.90;99.90
21722;DHT22;11023;48.274;7.794;2023-06-14T02:20:08;13.80;99.90
21722;DHT22;11023;48.274;7.794;2023-06-14T02:22:35;13.80;99.90
21722;DHT22;11023;48.274;7.794;2023-06-14T02:25:00;13.80;99.90
21722;DHT22;11023;48.274;7.794;2023-06-14T02:27:26;13.80;99.90
21722;DHT22;11023;48.274;7.794;2023-06-14T02:29:52;13.80;99.90
21722;DHT22;11023;48.274;7.794;2023-06-14T02:32:17;13.80;99.90
21722;DHT22;11023;48.274;7.794;2023-06-14T02:34:43;13.70;99.90
21722;DHT22;11023;48.274;7.794;2023-06-14T02:37:09;13.70;99.90
21722;DHT22;11023;48.274;7.794;2023-06-14T02:39:34;13.70;99.90
21722;DHT22;11023;48.274;7.794;2023-06-14T02:42:00;13.70;99.90
21722;DHT22;11023;48.274;7.794;2023-06-14T02:44:27;13.70;99.90
21722;DHT22;11023;48.274;7.794;2023-06-14T02:46:56;13.70;99.90
21722;DHT22;11023;48.274;7.794;2023-06-14T02:49:22;13.70;99.90
21722;DHT22;11023;48.274;7.794;2023-06-14T02:51:48;13.70;99.90
21722;DHT22;11023;48.274;7.794;2023-06-14T02:54:13;13.60;99.90
21722;DHT22;11023;48.274;7.794;2023-06-14T02:56:39;13.50;99.90
21722;DHT22;11023;48.274;7.794;2023-06-14T02:59:06;13.50;99.90
21722;DHT22;11023;48.274;7.794;2023-06-14T03:01:32;13.40;99.90
21722;DHT22;11023;48.274;7.794;2023-06-14T03:04:09;13.40;99.90
21722;DHT22;11023;48.274;7.794;2023-06-14T03:06:35;13.40;99.90
21722;DHT22;11023;48.274;7.794;2023-06-14T03:09:02;13.40;99.90
21722;DHT22;11023;48.274;7.794;2023-06-14T03:11:32;13.40;99.90
21722;DHT22;11023;48.274;7.794;2023-06-14T03:13:57;13.40;99.90
21722;DHT22;11023;48.274;7.794;2023-06-14T03:16:23;13.40;99.90
21722;DHT22;11023;48.274;7.794;2023-06-14T03:18:53;13.40;99.90
21722;DHT22;11023;48.274;7.794;2023-06-14T03:21:21;13.40;99.90
21722;DHT22;11023;48.274;7.794;2023-06-14T03:23:48;13.40;99.90
21722;DHT22;11023;48.274;7.794;2023-06-14T03:26:14;13.40;99.90
21722;DHT22;11023;48.274;7.794;2023-06-14T03:28:43;13.40;99.90
21722;DHT22;11023;48.274;7.794;2023-06-14T03:31:09;13.40;99.90
21722;DHT22;11023;48.274;7.794;2023-06-14T03:33:35;13.40;99.90
21722;DHT22;11023;48.274;7.794;2023-06-14T03:36:01;13.40;99.90
21722;DHT22;11023;48.274;7.794;2023-06-14T03:38:27;13.40;99.90
21722;DHT22;11023;48.274;7.794;2023-06-14T03:40:53;13.30;99.90
21722;DHT22;11023;48.274;7.794;2023-06-14T03:43:18;13.30;99.90
21722;DHT22;11023;48.274;7.794;2023-06-14T03:45:44;13.20;99.90
21722;DHT22;11023;48.274;7.794;2023-06-14T03:48:10;13.20;99.90
21722;DHT22;11023;48.274;7.794;2023-06-14T03:50:35;13.20;99.90
21722;DHT22;11023;48.274;7.794;2023-06-14T03:53:03;13.10;99.90
21722;DHT22;11023;48.274;7.794;2023-06-14T03:55:29;13.10;99.90
21722;DHT22;11023;48.274;7.794;2023-06-14T03:57:57;13.10;99.90
21722;DHT22;11023;48.274;7.794;2023-06-14T04:00:23;13.00;99.90
21722;DHT22;11023;48.274;7.794;2023-06-14T04:02:49;12.90;99.90
21722;DHT22;11023;48.274;7.794;2023-06-14T04:05:14;12.90;99.90
21722;DHT22;11023;48.274;7.794;2023-06-14T04:07:42;12.80;99.90
21722;DHT22;11023;48.274;7.794;2023-06-14T04:10:13;12.80;99.90
21722;DHT22;11023;48.274;7.794;2023-06-14T04:12:40;12.90;99.90
21722;DHT22;11023;48.274;7.794;2023-06-14T04:15:06;12.90;99.90
21722;DHT22;11023;48.274;7.794;2023-06-14T04:17:33;13.00;99.90
21722;DHT22;11023;48.274;7.794;2023-06-14T04:20:00;13.00;99.90
21722;DHT22;11023;48.274;7.794;2023-06-14T04:22:26;13.10;99.90
21722;DHT22;11023;48.274;7.794;2023-06-14T04:24:56;13.20;99.90
21722;DHT22;11023;48.274;7.794;2023-06-14T04:27:22;13.20;99.90
21722;DHT22;11023;48.274;7.794;2023-06-14T04:29:55;13.20;99.90
21722;DHT22;11023;48.274;7.794;2023-06-14T04:32:28;13.30;99.90
21722;DHT22;11023;48.274;7.794;2023-06-14T04:34:57;13.30;99.90
21722;DHT22;11023;48.274;7.794;2023-06-14T04:37:24;13.30;99.90
21722;DHT22;11023;48.274;7.794;2023-06-14T04:39:54;13.30;99.90
21722;DHT22;11023;48.274;7.794;2023-06-14T04:42:21;13.40;99.90
21722;DHT22;11023;48.274;7.794;2023-06-14T04:44:51;13.40;99.90
21722;DHT22;11023;48.274;7.794;2023-06-14T04:47:17;13.50;99.90
21722;DHT22;11023;48.274;7.794;2023-06-14T04:49:43;13.50;99.90
21722;DHT22;11023;48.274;7.794;2023-06-14T04:52:10;13.60;99.90
21722;DHT22;11023;48.274;7.794;2023-06-14T04:54:39;13.60;99.90
21722;DHT22;11023;48.274;7.794;2023-06-14T04:57:10;13.60;99.90
21722;DHT22;11023;48.274;7.794;2023-06-14T04:59:43;13.70;99.90
21722;DHT22;11023;48.274;7.794;2023-06-14T05:02:10;13.70;99.90
21722;DHT22;11023;48.274;7.794;2023-06-14T05:04:37;13.70;99.90
21722;DHT22;11023;48.274;7.794;2023-06-14T05:07:09;13.80;99.90
21722;DHT22;11023;48.274;7.794;2023-06-14T05:09:36;13.90;99.90
21722;DHT22;11023;48.274;7.794;2023-06-14T05:12:02;13.90;99.90
21722;DHT22;11023;48.274;7.794;2023-06-14T05:14:28;14.00;99.90
21722;DHT22;11023;48.274;7.794;2023-06-14T05:16:53;14.00;99.90
21722;DHT22;11023;48.274;7.794;2023-06-14T05:19:19;14.10;99.90
21722;DHT22;11023;48.274;7.794;2023-06-14T05:21:47;14.20;99.90
21722;DHT22;11023;48.274;7.794;2023-06-14T05:24:16;14.20;99.90
21722;DHT22;11023;48.274;7.794;2023-06-14T05:26:43;14.30;99.90
21722;DHT22;11023;48.274;7.794;2023-06-14T05:29:09;14.30;99.90
21722;DHT22;11023;48.274;7.794;2023-06-14T05:31:34;14.40;99.90
21722;DHT22;11023;48.274;7.794;2023-06-14T05:34:00;14.40;99.90
21722;DHT22;11023;48.274;7.794;2023-06-14T05:36:26;14.50;99.90
21722;DHT22;11023;48.274;7.794;2023-06-14T05:38:53;14.60;99.90
21722;DHT22;11023;48.274;7.794;2023-06-14T05:41:25;14.60;99.90
21722;DHT22;11023;48.274;7.794;2023-06-14T05:43:52;14.70;99.90
21722;DHT22;11023;48.274;7.794;2023-06-14T05:46:18;14.80;99.90
21722;DHT22;11023;48.274;7.794;2023-06-14T05:48:48;14.90;99.90
21722;DHT22;11023;48.274;7.794;2023-06-14T05:51:13;14.90;99.90
21722;DHT22;11023;48.274;7.794;2023-06-14T05:53:40;15.00;99.90
21722;DHT22;11023;48.274;7.794;2023-06-14T05:56:05;15.10;99.90
21722;DHT22;11023;48.274;7.794;2023-06-14T05:58:31;15.20;99.90
21722;DHT22;11023;48.274;7.794;2023-06-14T06:00:57;15.30;99.90
21722;DHT22;11023;48.274;7.794;2023-06-14T06:03:23;15.30;99.90
21722;DHT22;11023;48.274;7.794;2023-06-14T06:05:48;15.40;99.90
21722;DHT22;11023;48.274;7.794;2023-06-14T06:08:14;15.40;99.90
21722;DHT22;11023;48.274;7.794;2023-06-14T06:10:42;15.50;99.90
21722;DHT22;11023;48.274;7.794;2023-06-14T06:13:08;15.60;99.90
21722;DHT22;11023;48.274;7.794;2023-06-14T06:15:34;15.60;99.90
21722;DHT22;11023;48.274;7.794;2023-06-14T06:17:59;15.70;99.90
21722;DHT22;11023;48.274;7.794;2023-06-14T06:20:25;15.80;99.90
21722;DHT22;11023;48.274;7.794;2023-06-14T06:22:56;15.80;99.90
21722;DHT22;11023;48.274;7.794;2023-06-14T06:25:22;16.00;99.90
21722;DHT22;11023;48.274;7.794;2023-06-14T06:27:52;16.10;99.90
21722;DHT22;11023;48.274;7.794;2023-06-14T06:30:18;16.20;99.90
21722;DHT22;11023;48.274;7.794;2023-06-14T06:32:44;16.30;99.90
21722;DHT22;11023;48.274;7.794;2023-06-14T06:35:10;16.40;99.90
21722;DHT22;11023;48.274;7.794;2023-06-14T06:37:39;16.50;99.90
21722;DHT22;11023;48.274;7.794;2023-06-14T06:40:05;16.60;99.90
21722;DHT22;11023;48.274;7.794;2023-06-14T06:42:32;16.70;99.90
21722;DHT22;11023;48.274;7.794;2023-06-14T06:44:57;16.80;99.90
21722;DHT22;11023;48.274;7.794;2023-06-14T06:47:23;16.90;99.90
21722;DHT22;11023;48.274;7.794;2023-06-14T06:49:50;16.90;99.90
21722;DHT22;11023;48.274;7.794;2023-06-14T06:52:16;17.10;99.90
21722;DHT22;11023;48.274;7.794;2023-06-14T06:54:41;17.20;99.90
21722;DHT22;11023;48.274;7.794;2023-06-14T06:57:07;17.30;99.90
21722;DHT22;11023;48.274;7.794;2023-06-14T06:59:33;17.30;99.90
21722;DHT22;11023;48.274;7.794;2023-06-14T07:01:59;17.50;99.90
21722;DHT22;11023;48.274;7.794;2023-06-14T07:04:25;17.60;99.90
21722;DHT22;11023;48.274;7.794;2023-06-14T07:06:50;17.70;99.90
21722;DHT22;11023;48.274;7.794;2023-06-14T07:09:16;17.80;99.90
21722;DHT22;11023;48.274;7.794;2023-06-14T07:11:46;17.90;99.90
21722;DHT22;11023;48.274;7.794;2023-06-14T07:14:12;17.90;99.90
21722;DHT22;11023;48.274;7.794;2023-06-14T07:16:38;18.00;99.90
21722;DHT22;11023;48.274;7.794;2023-06-14T07:19:04;18.10;99.90
21722;DHT22;11023;48.274;7.794;2023-06-14T07:21:30;18.10;99.90
21722;DHT22;11023;48.274;7.794;2023-06-14T07:23:56;18.20;99.90
21722;DHT22;11023;48.274;7.794;2023-06-14T07:26:22;18.30;99.90
21722;DHT22;11023;48.274;7.794;2023-06-14T07:28:48;18.40;99.90
21722;DHT22;11023;48.274;7.794;2023-06-14T07:31:14;18.50;99.90
21722;DHT22;11023;48.274;7.794;2023-06-14T07:33:41;18.60;99.90
21722;DHT22;11023;48.274;7.794;2023-06-14T07:36:07;18.70;99.90
21722;DHT22;11023;48.274;7.794;2023-06-14T07:38:33;18.80;99.90
21722;DHT22;11023;48.274;7.794;2023-06-14T07:40:59;18.90;99.90
21722;DHT22;11023;48.274;7.794;2023-06-14T07:43:25;18.90;99.90
21722;DHT22;11023;48.274;7.794;2023-06-14T07:45:51;19.00;99.90
21722;DHT22;11023;48.274;7.794;2023-06-14T07:48:16;19.20;99.90
21722;DHT22;11023;48.274;7.794;2023-06-14T07:50:42;19.30;99.90
21722;DHT22;11023;48.274;7.794;2023-06-14T07:53:08;19.30;99.90
21722;DHT22;11023;48.274;7.794;2023-06-14T07:55:34;19.30;99.90
21722;DHT22;11023;48.274;7.794;2023-06-14T07:58:08;19.50;99.90
21722;DHT22;11023;48.274;7.794;2023-06-14T08:00:34;19.60;99.90
21722;DHT22;11023;48.274;7.794;2023-06-14T08:03:00;19.80;99.90
21722;DHT22;11023;48.274;7.794;2023-06-14T08:05:26;19.90;99.90
21722;DHT22;11023;48.274;7.794;2023-06-14T08:07:52;20.00;99.90
21722;DHT22;11023;48.274;7.794;2023-06-14T08:10:18;20.00;99.90
21722;DHT22;11023;48.274;7.794;2023-06-14T08:12:44;20.10;99.90
21722;DHT22;11023;48.274;7.794;2023-06-14T08:15:10;20.10;99.90
21722;DHT22;11023;48.274;7.794;2023-06-14T08:17:36;20.20;99.90
21722;DHT22;11023;48.274;7.794;2023-06-14T08:20:03;20.40;99.90
21722;DHT22;11023;48.274;7.794;2023-06-14T08:22:30;20.40;99.90
21722;DHT22;11023;48.274;7.794;2023-06-14T08:25:02;20.50;99.90
21722;DHT22;11023;48.274;7.794;2023-06-14T08:27:28;20.70;99.90
21722;DHT22;11023;48.274;7.794;2023-06-14T08:29:54;20.80;99.90
21722;DHT22;11023;48.274;7.794;2023-06-14T08:32:20;20.80;99.90
21722;DHT22;11023;48.274;7.794;2023-06-14T08:34:46;20.90;99.90
21722;DHT22;11023;48.274;7.794;2023-06-14T08:37:11;21.00;99.90
21722;DHT22;11023;48.274;7.794;2023-06-14T08:39:37;21.00;99.90
21722;DHT22;11023;48.274;7.794;2023-06-14T08:42:04;21.20;99.90
21722;DHT22;11023;48.274;7.794;2023-06-14T08:44:32;21.20;99.90
21722;DHT22;11023;48.274;7.794;2023-06-14T08:46:59;21.40;99.90
21722;DHT22;11023;48.274;7.794;2023-06-14T08:49:26;21.60;99.90
21722;DHT22;11023;48.274;7.794;2023-06-14T08:51:59;21.70;99.90
21722;DHT22;11023;48.274;7.794;2023-06-14T08:54:27;21.80;99.90
21722;DHT22;11023;48.274;7.794;2023-06-14T08:56:55;21.80;99.90
21722;DHT22;11023;48.274;7.794;2023-06-14T08:59:25;21.80;99.90
21722;DHT22;11023;48.274;7.794;2023-06-14T09:01:51;21.90;99.90
21722;DHT22;11023;48.274;7.794;2023-06-14T09:04:18;22.00;99.90
21722;DHT22;11023;48.274;7.794;2023-06-14T09:06:45;22.00;99.90
21722;DHT22;11023;48.274;7.794;2023-06-14T09:09:11;22.20;99.90
21722;DHT22;11023;48.274;7.794;2023-06-14T09:11:37;22.30;99.90
21722;DHT22;11023;48.274;7.794;2023-06-14T09:14:03;22.50;99.90
21722;DHT22;11023;48.274;7.794;2023-06-14T09:16:32;22.70;99.90
21722;DHT22;11023;48.274;7.794;2023-06-14T09:18:58;22.70;99.90
21722;DHT22;11023;48.274;7.794;2023-06-14T09:21:24;22.70;99.90
21722;DHT22;11023;48.274;7.794;2023-06-14T09:23:50;22.80;99.90
21722;DHT22;11023;48.274;7.794;2023-06-14T09:26:19;22.80;99.90
21722;DHT22;11023;48.274;7.794;2023-06-14T09:28:46;23.00;99.90
21722;DHT22;11023;48.274;7.794;2023-06-14T09:31:15;23.00;99.90
21722;DHT22;11023;48.274;7.794;2023-06-14T09:33:42;23.00;99.90
21722;DHT22;11023;48.274;7.794;2023-06-14T09:36:21;23.20;99.90
21722;DHT22;11023;48.274;7.794;2023-06-14T09:38:57;23.20;99.90
21722;DHT22;11023;48.274;7.794;2023-06-14T09:41:37;23.40;99.90
21722;DHT22;11023;48.274;7.794;2023-06-14T09:44:04;23.50;99.90
21722;DHT22;11023;48.274;7.794;2023-06-14T09:46:31;23.50;99.90
21722;DHT22;11023;48.274;7.794;2023-06-14T09:49:01;23.60;99.90
21722;DHT22;11023;48.274;7.794;2023-06-14T09:51:27;23.80;99.90
21722;DHT22;11023;48.274;7.794;2023-06-14T09:53:59;24.00;99.90
21722;DHT22;11023;48.274;7.794;2023-06-14T09:56:30;24.00;99.90
21722;DHT22;11023;48.274;7.794;2023-06-14T09:58:57;24.10;99.90
21722;DHT22;11023;48.274;7.794;2023-06-14T10:01:28;24.20;99.90
21722;DHT22;11023;48.274;7.794;2023-06-14T10:04:03;24.30;99.90
21722;DHT22;11023;48.274;7.794;2023-06-14T10:06:29;24.30;99.90
21722;DHT22;11023;48.274;7.794;2023-06-14T10:08:58;24.40;99.90
21722;DHT22;11023;48.274;7.794;2023-06-14T10:11:28;24.50;99.90
21722;DHT22;11023;48.274;7.794;2023-06-14T10:13:55;24.50;99.90
21722;DHT22;11023;48.274;7.794;2023-06-14T10:16:32;24.50;99.90
21722;DHT22;11023;48.274;7.794;2023-06-14T10:21:32;24.60;99.90
21722;DHT22;11023;48.274;7.794;2023-06-14T10:24:03;24.60;99.90
21722;DHT22;11023;48.274;7.794;2023-06-14T10:26:30;24.70;99.90
21722;DHT22;11023;48.274;7.794;2023-06-14T10:29:00;24.90;99.90
21722;DHT22;11023;48.274;7.794;2023-06-14T10:31:46;24.90;99.90
21722;DHT22;11023;48.274;7.794;2023-06-14T10:34:30;24.90;99.90
21722;DHT22;11023;48.274;7.794;2023-06-14T10:37:13;25.10;99.90
21722;DHT22;11023;48.274;7.794;2023-06-14T10:39:44;25.10;99.90
21722;DHT22;11023;48.274;7.794;2023-06-14T10:42:12;25.10;99.90
21722;DHT22;11023;48.274;7.794;2023-06-14T10:50:10;25.50;99.90
21722;DHT22;11023;48.274;7.794;2023-06-14T10:52:41;25.70;99.90
21722;DHT22;11023;48.274;7.794;2023-06-14T10:55:16;25.80;99.90
21722;DHT22;11023;48.274;7.794;2023-06-14T10:57:52;25.80;99.90
21722;DHT22;11023;48.274;7.794;2023-06-14T11:00:33;25.90;99.90
21722;DHT22;11023;48.274;7.794;2023-06-14T11:06:13;26.10;99.90
21722;DHT22;11023;48.274;7.794;2023-06-14T11:12:03;26.10;99.90
21722;DHT22;11023;48.274;7.794;2023-06-14T11:14:32;26.40;99.50
21722;DHT22;11023;48.274;7.794;2023-06-14T11:16:57;26.60;98.00
21722;DHT22;11023;48.274;7.794;2023-06-14T11:19:24;26.60;97.60
21722;DHT22;11023;48.274;7.794;2023-06-14T11:21:50;26.60;97.10
21722;DHT22;11023;48.274;7.794;2023-06-14T11:24:16;26.70;98.10
21722;DHT22;11023;48.274;7.794;2023-06-14T11:26:42;26.80;98.80
21722;DHT22;11023;48.274;7.794;2023-06-14T11:29:08;26.90;98.20
21722;DHT22;11023;48.274;7.794;2023-06-14T11:31:34;27.00;98.10
21722;DHT22;11023;48.274;7.794;2023-06-14T11:34:00;26.80;96.40
21722;DHT22;11023;48.274;7.794;2023-06-14T11:36:27;26.70;96.90
21722;DHT22;11023;48.274;7.794;2023-06-14T11:39:03;26.80;97.40
21722;DHT22;11023;48.274;7.794;2023-06-14T11:41:43;26.80;96.10
21722;DHT22;11023;48.274;7.794;2023-06-14T11:44:09;26.90;96.10
21722;DHT22;11023;48.274;7.794;2023-06-14T11:46:35;27.00;96.10
21722;DHT22;11023;48.274;7.794;2023-06-14T11:49:02;27.10;96.60
21722;DHT22;11023;48.274;7.794;2023-06-14T11:51:33;27.00;96.10
21722;DHT22;11023;48.274;7.794;2023-06-14T11:54:00;27.10;96.00
21722;DHT22;11023;48.274;7.794;2023-06-14T11:56:27;27.00;96.00
21722;DHT22;11023;48.274;7.794;2023-06-14T11:58:53;26.90;95.60
21722;DHT22;11023;48.274;7.794;2023-06-14T12:01:22;26.80;95.50
21722;DHT22;11023;48.274;7.794;2023-06-14T12:03:49;26.90;96.10
21722;DHT22;11023;48.274;7.794;2023-06-14T12:06:15;27.00;96.50
21722;DHT22;11023;48.274;7.794;2023-06-14T12:08:43;27.10;95.40
21722;DHT22;11023;48.274;7.794;2023-06-14T12:11:12;27.00;95.00
21722;DHT22;11023;48.274;7.794;2023-06-14T12:13:42;27.00;95.40
21722;DHT22;11023;48.274;7.794;2023-06-14T12:16:09;27.00;95.10
21722;DHT22;11023;48.274;7.794;2023-06-14T12:18:36;27.00;94.60
21722;DHT22;11023;48.274;7.794;2023-06-14T12:21:06;26.90;95.10
21722;DHT22;11023;48.274;7.794;2023-06-14T12:23:46;26.90;93.90
21722;DHT22;11023;48.274;7.794;2023-06-14T12:26:16;27.00;94.70
21722;DHT22;11023;48.274;7.794;2023-06-14T12:28:43;27.10;94.40
21722;DHT22;11023;48.274;7.794;2023-06-14T12:31:10;27.10;94.10
21722;DHT22;11023;48.274;7.794;2023-06-14T12:33:36;27.10;93.80
21722;DHT22;11023;48.274;7.794;2023-06-14T12:36:07;27.10;93.50
21722;DHT22;11023;48.274;7.794;2023-06-14T12:38:33;27.10;94.20
21722;DHT22;11023;48.274;7.794;2023-06-14T12:40:59;27.10;93.30
21722;DHT22;11023;48.274;7.794;2023-06-14T12:43:25;27.10;93.60
21722;DHT22;11023;48.274;7.794;2023-06-14T12:45:51;27.20;92.90
21722;DHT22;11023;48.274;7.794;2023-06-14T12:48:17;27.20;93.00
21722;DHT22;11023;48.274;7.794;2023-06-14T12:50:43;27.20;92.30
21722;DHT22;11023;48.274;7.794;2023-06-14T12:53:08;27.10;92.50
21722;DHT22;11023;48.274;7.794;2023-06-14T12:55:34;27.10;92.90
21722;DHT22;11023;48.274;7.794;2023-06-14T12:58:00;27.20;92.70
21722;DHT22;11023;48.274;7.794;2023-06-14T13:00:26;27.30;92.60
21722;DHT22;11023;48.274;7.794;2023-06-14T13:02:52;27.20;92.30
21722;DHT22;11023;48.274;7.794;2023-06-14T13:05:18;27.20;92.20
21722;DHT22;11023;48.274;7.794;2023-06-14T13:07:43;27.10;92.50
21722;DHT22;11023;48.274;7.794;2023-06-14T13:10:10;27.20;91.90
21722;DHT22;11023;48.274;7.794;2023-06-14T13:12:36;27.50;92.70
21722;DHT22;11023;48.274;7.794;2023-06-14T13:15:02;27.50;91.30
21722;DHT22;11023;48.274;7.794;2023-06-14T13:17:27;27.50;92.00
21722;DHT22;11023;48.274;7.794;2023-06-14T13:19:53;27.60;91.40
21722;DHT22;11023;48.274;7.794;2023-06-14T13:22:19;27.70;91.40
21722;DHT22;11023;48.274;7.794;2023-06-14T13:24:45;27.80;91.40
21722;DHT22;11023;48.274;7.794;2023-06-14T13:27:10;27.80;90.80
21722;DHT22;11023;48.274;7.794;2023-06-14T13:29:36;27.60;90.70
21722;DHT22;11023;48.274;7.794;2023-06-14T13:32:03;27.60;91.40
21722;DHT22;11023;48.274;7.794;2023-06-14T13:34:29;27.60;91.30
21722;DHT22;11023;48.274;7.794;2023-06-14T13:36:55;27.70;91.20
21722;DHT22;11023;48.274;7.794;2023-06-14T13:39:22;27.70;90.90
21722;DHT22;11023;48.274;7.794;2023-06-14T13:41:47;27.60;90.40
21722;DHT22;11023;48.274;7.794;2023-06-14T13:44:13;27.50;90.00
21722;DHT22;11023;48.274;7.794;2023-06-14T13:46:40;27.40;91.00
21722;DHT22;11023;48.274;7.794;2023-06-14T13:49:08;27.80;90.70
21722;DHT22;11023;48.274;7.794;2023-06-14T13:51:34;27.70;90.90
21722;DHT22;11023;48.274;7.794;2023-06-14T13:54:00;28.00;91.30
21722;DHT22;11023;48.274;7.794;2023-06-14T13:56:26;28.10;90.20
21722;DHT22;11023;48.274;7.794;2023-06-14T13:58:52;28.00;90.40
21722;DHT22;11023;48.274;7.794;2023-06-14T14:01:18;27.80;90.20
21722;DHT22;11023;48.274;7.794;2023-06-14T14:03:48;27.90;91.20
21722;DHT22;11023;48.274;7.794;2023-06-14T14:06:15;27.80;90.70
21722;DHT22;11023;48.274;7.794;2023-06-14T14:08:41;27.90;91.70
21722;DHT22;11023;48.274;7.794;2023-06-14T14:11:08;28.10;91.60
21722;DHT22;11023;48.274;7.794;2023-06-14T14:13:35;28.10;90.50
21722;DHT22;11023;48.274;7.794;2023-06-14T14:16:02;28.00;90.60
21722;DHT22;11023;48.274;7.794;2023-06-14T14:18:28;28.00;90.80
21722;DHT22;11023;48.274;7.794;2023-06-14T14:20:54;28.10;90.70
21722;DHT22;11023;48.274;7.794;2023-06-14T14:23:21;28.20;90.90
21722;DHT22;11023;48.274;7.794;2023-06-14T14:25:47;28.30;90.20
21722;DHT22;11023;48.274;7.794;2023-06-14T14:28:13;28.10;90.90
21722;DHT22;11023;48.274;7.794;2023-06-14T14:30:41;27.90;90.10
21722;DHT22;11023;48.274;7.794;2023-06-14T14:33:07;27.90;90.50
21722;DHT22;11023;48.274;7.794;2023-06-14T14:35:34;27.80;90.20
21722;DHT22;11023;48.274;7.794;2023-06-14T14:37:59;27.80;90.30
21722;DHT22;11023;48.274;7.794;2023-06-14T14:40:25;27.80;90.30
21722;DHT22;11023;48.274;7.794;2023-06-14T14:42:51;27.80;90.50
21722;DHT22;11023;48.274;7.794;2023-06-14T14:45:17;27.80;90.30
21722;DHT22;11023;48.274;7.794;2023-06-14T14:47:43;27.70;89.80
21722;DHT22;11023;48.274;7.794;2023-06-14T14:50:08;27.90;90.60
21722;DHT22;11023;48.274;7.794;2023-06-14T14:52:35;27.80;89.30
21722;DHT22;11023;48.274;7.794;2023-06-14T14:55:01;28.00;89.90
21722;DHT22;11023;48.274;7.794;2023-06-14T14:57:26;27.80;87.60
21722;DHT22;11023;48.274;7.794;2023-06-14T14:59:52;27.80;88.00
21722;DHT22;11023;48.274;7.794;2023-06-14T15:02:18;27.80;88.70
21722;DHT22;11023;48.274;7.794;2023-06-14T15:04:45;27.80;89.10
21722;DHT22;11023;48.274;7.794;2023-06-14T15:07:11;27.90;89.80
21722;DHT22;11023;48.274;7.794;2023-06-14T15:09:37;27.70;89.80
21722;DHT22;11023;48.274;7.794;2023-06-14T15:12:03;27.80;89.30
21722;DHT22;11023;48.274;7.794;2023-06-14T15:14:29;27.90;88.80
21722;DHT22;11023;48.274;7.794;2023-06-14T15:16:55;28.00;89.40
21722;DHT22;11023;48.274;7.794;2023-06-14T15:19:23;27.90;88.90
21722;DHT22;11023;48.274;7.794;2023-06-14T15:21:49;27.80;89.80
21722;DHT22;11023;48.274;7.794;2023-06-14T15:24:14;27.70;89.40
21722;DHT22;11023;48.274;7.794;2023-06-14T15:26:40;27.70;89.20
21722;DHT22;11023;48.274;7.794;2023-06-14T15:29:06;27.70;90.00
21722;DHT22;11023;48.274;7.794;2023-06-14T15:31:31;27.70;89.40
21722;DHT22;11023;48.274;7.794;2023-06-14T15:33:57;27.90;88.80
21722;DHT22;11023;48.274;7.794;2023-06-14T15:36:24;27.90;88.90
21722;DHT22;11023;48.274;7.794;2023-06-14T15:38:49;27.90;88.20
21722;DHT22;11023;48.274;7.794;2023-06-14T15:41:15;28.10;88.60
21722;DHT22;11023;48.274;7.794;2023-06-14T15:43:41;28.10;88.20